Time;durP1;ratioP1;P1;durP2;ratioP2;P2;SDS_P1;SDS_P2;PMS_P1;PMS_P2;Temp;Humidity;BMP_temperature;BMP_pressure;BME280_temperature;BME280_humidity;BME280_pressure;Samples;Min_cycle;Max_cycle;Signal;HPM_P1;HPM_P2
2023/07/27 00:02:11;;;;;;;1.70;1.25;;;18.10;99.90;;;;;;5055530;28;20482;-52
2023/07/27 00:04:37;;;;;;;5.65;1.63;;;18.00;99.90;;;;;;5055046;28;20025;-53
2023/07/27 00:07:04;;;;;;;1.63;1.35;;;18.10;99.90;;;;;;5056150;28;20029;-50
2023/07/27 00:09:30;;;;;;;2.17;1.55;;;18.10;99.90;;;;;;5056096;28;20025;-54
2023/07/27 00:11:56;;;;;;;2.70;1.50;;;18.10;99.90;;;;;;5056094;28;20032;-49
2023/07/27 00:14:22;;;;;;;2.00;1.73;;;18.00;99.90;;;;;;5056081;28;20027;-53
2023/07/27 00:16:48;;;;;;;5.45;1.73;;;18.10;99.90;;;;;;5056286;28;20033;-55
2023/07/27 00:19:13;;;;;;;2.08;1.35;;;18.10;99.90;;;;;;5055094;28;20044;-49
2023/07/27 00:21:39;;;;;;;4.10;2.17;;;18.10;99.90;;;;;;5055931;28;20402;-53
2023/07/27 00:24:05;;;;;;;2.72;1.90;;;18.00;99.90;;;;;;5054491;28;20102;-50
2023/07/27 00:26:30;;;;;;;2.88;2.17;;;18.00;99.90;;;;;;5055611;28;20676;-53
2023/07/27 00:28:56;;;;;;;4.40;1.92;;;18.00;99.90;;;;;;5055813;28;20108;-38
2023/07/27 00:31:22;;;;;;;4.50;2.15;;;18.00;99.90;;;;;;5055763;28;20104;-39
2023/07/27 00:33:48;;;;;;;4.43;2.58;;;17.90;99.90;;;;;;5056014;28;20473;-40
2023/07/27 00:36:14;;;;;;;4.28;2.50;;;17.80;99.90;;;;;;5054978;28;20031;-38
2023/07/27 00:38:39;;;;;;;5.45;2.60;;;17.70;99.90;;;;;;5055450;28;20029;-39
2023/07/27 00:41:05;;;;;;;11.80;2.45;;;17.60;99.90;;;;;;5055868;28;20508;-39
2023/07/27 00:43:31;;;;;;;5.88;3.10;;;17.40;99.90;;;;;;5055823;28;20113;-44
2023/07/27 00:45:57;;;;;;;7.60;2.60;;;17.30;99.90;;;;;;5055281;28;20498;-40
2023/07/27 00:48:23;;;;;;;4.13;2.72;;;17.20;99.90;;;;;;5038830;28;20025;-39
2023/07/27 00:50:51;;;;;;;6.05;3.15;;;17.00;99.90;;;;;;5035547;28;20074;-41
2023/07/27 00:53:17;;;;;;;5.53;2.70;;;16.90;99.90;;;;;;5051323;28;20029;-41
2023/07/27 00:55:44;;;;;;;6.28;2.70;;;16.80;99.90;;;;;;5055368;28;20029;-38
2023/07/27 00:58:12;;;;;;;5.90;2.63;;;16.80;99.90;;;;;;5055299;28;20107;-38
2023/07/27 01:00:40;;;;;;;6.18;3.28;;;16.70;99.90;;;;;;5055182;28;20082;-39
2023/07/27 01:03:06;;;;;;;5.95;2.78;;;16.60;99.90;;;;;;5054786;28;20093;-41
2023/07/27 01:05:32;;;;;;;5.40;3.10;;;16.40;99.90;;;;;;5052794;28;20389;-40
2023/07/27 01:07:58;;;;;;;5.85;2.92;;;16.40;99.90;;;;;;5054984;28;20029;-40
2023/07/27 01:10:52;;;;;;;4.30;2.70;;;16.30;99.90;;;;;;5054650;28;20539;-38
2023/07/27 01:13:50;;;;;;;7.25;2.83;;;16.30;99.90;;;;;;5054375;28;20108;-39
2023/07/27 01:16:22;;;;;;;4.88;2.90;;;16.30;99.90;;;;;;5054744;28;20408;-38
2023/07/27 01:19:15;;;;;;;3.92;2.70;;;16.20;99.90;;;;;;5054937;28;20071;-40
2023/07/27 01:21:48;;;;;;;6.70;2.70;;;16.10;99.90;;;;;;5054895;28;20104;-36
2023/07/27 01:24:17;;;;;;;5.50;2.72;;;16.10;99.90;;;;;;5054790;28;20029;-37
2023/07/27 01:26:57;;;;;;;3.00;2.13;;;16.00;99.90;;;;;;5054099;28;20025;-37
2023/07/27 01:29:38;;;;;;;4.80;2.05;;;15.90;99.90;;;;;;5054720;28;20025;-34
2023/07/27 01:32:04;;;;;;;3.63;2.38;;;15.80;99.90;;;;;;5054658;28;20025;-34
2023/07/27 01:34:32;;;;;;;4.97;1.95;;;15.80;99.90;;;;;;5054656;28;20044;-33
2023/07/27 01:37:04;;;;;;;3.60;2.13;;;15.70;99.90;;;;;;5053400;28;20029;-34
2023/07/27 01:39:37;;;;;;;2.47;1.80;;;15.70;99.90;;;;;;5054868;28;20027;-35
2023/07/27 01:42:03;;;;;;;2.55;1.60;;;15.70;99.90;;;;;;5054562;28;20029;-35
2023/07/27 01:44:31;;;;;;;4.65;2.00;;;15.60;99.90;;;;;;5053713;28;20037;-37
2023/07/27 01:46:58;;;;;;;4.47;1.98;;;15.60;99.90;;;;;;5048206;28;20120;-36
2023/07/27 01:49:24;;;;;;;3.78;1.95;;;15.60;99.90;;;;;;5034530;28;20013;-36
2023/07/27 01:51:50;;;;;;;4.90;1.63;;;15.50;99.90;;;;;;5034603;28;20470;-37
2023/07/27 01:54:16;;;;;;;4.95;1.73;;;15.40;99.90;;;;;;5049440;28;20412;-36
2023/07/27 01:56:44;;;;;;;2.65;1.55;;;15.40;99.90;;;;;;5054269;28;20021;-36
2023/07/27 01:59:10;;;;;;;6.28;1.73;;;15.40;99.90;;;;;;5054545;28;20534;-35
2023/07/27 02:01:38;;;;;;;2.42;1.38;;;15.30;99.90;;;;;;5053445;28;20021;-35
2023/07/27 02:04:04;;;;;;;;;;;15.30;99.90;;;;;;5054810;28;20037;-34
2023/07/27 02:06:30;;;;;;;4.80;1.38;;;15.30;99.90;;;;;;5053980;28;19915;-35
2023/07/27 02:08:56;;;;;;;3.30;1.65;;;15.20;99.90;;;;;;5054247;28;20017;-34
2023/07/27 02:11:23;;;;;;;5.15;1.40;;;15.20;99.90;;;;;;5053873;28;20032;-34
2023/07/27 02:13:57;;;;;;;4.55;1.30;;;15.20;99.90;;;;;;5054193;28;20029;-34
2023/07/27 02:16:33;;;;;;;2.80;1.15;;;15.20;99.90;;;;;;5053005;28;20508;-34
2023/07/27 02:19:00;;;;;;;1.33;1.05;;;15.20;99.90;;;;;;5033886;28;20490;-34
2023/07/27 02:21:28;;;;;;;2.78;1.40;;;15.10;99.90;;;;;;5043655;28;20555;-35
2023/07/27 02:23:54;;;;;;;2.08;1.17;;;15.20;99.90;;;;;;5053612;28;20025;-34
2023/07/27 02:26:20;;;;;;;2.95;1.30;;;15.20;99.90;;;;;;5053549;28;20025;-34
2023/07/27 02:28:46;;;;;;;1.30;1.20;;;15.10;99.90;;;;;;5053600;28;20028;-34
2023/07/27 02:31:11;;;;;;;1.65;1.40;;;15.00;99.90;;;;;;5053786;28;20024;-34
2023/07/27 02:33:37;;;;;;;1.73;1.40;;;15.00;99.90;;;;;;5053063;28;20029;-36
2023/07/27 02:36:03;;;;;;;2.22;1.48;;;15.00;99.90;;;;;;5053464;28;20029;-35
2023/07/27 02:38:28;;;;;;;7.13;1.45;;;15.00;99.90;;;;;;5053399;28;20071;-36
2023/07/27 02:40:54;;;;;;;3.38;1.65;;;15.00;99.90;;;;;;5053594;28;20021;-36
2023/07/27 02:43:21;;;;;;;3.00;1.70;;;15.10;99.90;;;;;;5052061;28;20017;-36
2023/07/27 02:45:46;;;;;;;3.55;2.30;;;15.00;99.90;;;;;;5053093;28;20508;-37
2023/07/27 02:48:12;;;;;;;6.68;2.25;;;15.00;99.90;;;;;;5038036;28;20038;-38
2023/07/27 02:50:37;;;;;;;3.22;1.63;;;15.00;99.90;;;;;;5035414;28;20448;-37
2023/07/27 02:53:03;;;;;;;2.15;1.92;;;14.90;99.90;;;;;;5053048;28;20031;-38
2023/07/27 02:55:29;;;;;;;2.63;1.70;;;14.90;99.90;;;;;;5053124;28;20048;-40
2023/07/27 02:57:54;;;;;;;3.47;2.15;;;15.00;99.90;;;;;;5053041;28;20028;-37
2023/07/27 03:00:20;;;;;;;4.20;2.60;;;15.00;99.90;;;;;;5053288;28;20424;-36
2023/07/27 03:02:45;;;;;;;3.58;2.45;;;15.00;99.90;;;;;;5052940;28;20021;-36
2023/07/27 03:05:11;;;;;;;2.67;2.40;;;15.00;99.90;;;;;;5052959;28;20025;-36
2023/07/27 03:07:37;;;;;;;3.33;2.13;;;15.00;99.90;;;;;;5052109;28;20025;-40
2023/07/27 03:10:03;;;;;;;7.47;2.75;;;15.00;99.90;;;;;;5052862;28;20594;-38
2023/07/27 03:12:28;;;;;;;3.97;2.30;;;15.00;99.90;;;;;;5052881;28;20029;-38
2023/07/27 03:14:54;;;;;;;5.55;2.55;;;15.00;99.90;;;;;;5052773;28;20381;-38
2023/07/27 03:17:20;;;;;;;3.40;1.95;;;15.00;99.90;;;;;;5052797;28;20060;-38
2023/07/27 03:19:45;;;;;;;3.75;2.42;;;15.00;99.90;;;;;;5052779;28;20025;-38
2023/07/27 03:22:11;;;;;;;5.53;2.95;;;14.90;99.90;;;;;;5052769;28;20052;-40
2023/07/27 03:24:36;;;;;;;4.50;2.47;;;14.90;99.90;;;;;;5051955;28;20623;-37
2023/07/27 03:27:02;;;;;;;7.63;3.03;;;14.90;99.90;;;;;;5052933;28;20060;-39
2023/07/27 03:29:28;;;;;;;3.80;2.70;;;14.90;99.90;;;;;;5052347;28;20013;-35
2023/07/27 03:31:54;;;;;;;3.83;2.55;;;15.00;99.90;;;;;;5052620;28;20107;-36
2023/07/27 03:34:19;;;;;;;4.55;3.22;;;15.00;99.90;;;;;;5051457;28;20040;-35
2023/07/27 03:36:45;;;;;;;7.03;3.72;;;15.00;99.90;;;;;;5052621;28;20025;-35
2023/07/27 03:39:11;;;;;;;4.72;3.08;;;15.00;99.90;;;;;;5052818;28;20037;-36
2023/07/27 03:41:37;;;;;;;3.78;2.72;;;15.00;99.90;;;;;;5051843;28;20029;-36
2023/07/27 03:44:02;;;;;;;5.00;3.55;;;15.00;99.90;;;;;;5052513;28;20037;-35
2023/07/27 03:46:28;;;;;;;7.95;3.65;;;14.90;99.90;;;;;;5051270;28;20132;-37
2023/07/27 03:48:55;;;;;;;5.10;3.50;;;15.00;99.90;;;;;;5032611;28;20269;-36
2023/07/27 03:51:20;;;;;;;6.47;3.78;;;15.00;99.90;;;;;;5032800;28;20018;-36
2023/07/27 03:53:46;;;;;;;7.28;4.38;;;15.00;99.90;;;;;;5043645;28;20044;-36
2023/07/27 03:56:12;;;;;;;6.72;4.30;;;15.00;99.90;;;;;;5052394;28;20025;-35
2023/07/27 03:58:38;;;;;;;5.35;3.63;;;15.00;99.90;;;;;;5051669;28;20028;-36
2023/07/27 04:01:04;;;;;;;4.85;4.18;;;15.00;99.90;;;;;;5052611;28;20430;-37
2023/07/27 04:03:29;;;;;;;8.02;4.40;;;15.10;99.90;;;;;;5052347;28;20127;-37
2023/07/27 04:05:55;;;;;;;8.20;3.88;;;15.00;99.90;;;;;;5052198;28;20075;-38
2023/07/27 04:08:21;;;;;;;11.40;4.85;;;15.00;99.90;;;;;;5052290;28;20017;-36
2023/07/27 04:10:46;;;;;;;7.45;4.55;;;15.00;99.90;;;;;;5050984;28;20013;-35
2023/07/27 04:13:12;;;;;;;12.70;4.35;;;15.00;99.90;;;;;;5052494;28;20045;-35
2023/07/27 04:15:38;;;;;;;7.47;4.97;;;15.00;99.90;;;;;;5051485;28;20025;-36
2023/07/27 04:18:04;;;;;;;7.72;5.47;;;15.00;99.90;;;;;;5052166;28;20520;-35
2023/07/27 04:20:30;;;;;;;11.70;5.55;;;15.00;99.90;;;;;;5052268;28;20104;-35
2023/07/27 04:22:56;;;;;;;8.90;5.32;;;15.00;99.90;;;;;;5052084;28;20056;-35
2023/07/27 04:25:22;;;;;;;9.68;5.75;;;15.00;99.90;;;;;;5052052;28;20402;-36
2023/07/27 04:27:52;;;;;;;11.25;5.70;;;14.90;99.90;;;;;;5052009;28;20040;-36
2023/07/27 04:30:18;;;;;;;9.05;5.18;;;14.90;99.90;;;;;;5052093;28;20024;-35
2023/07/27 04:32:44;;;;;;;12.27;5.68;;;14.90;99.90;;;;;;5051298;28;20036;-35
2023/07/27 04:35:10;;;;;;;11.90;5.75;;;14.90;99.90;;;;;;5052070;28;20022;-35
2023/07/27 04:37:35;;;;;;;8.43;5.53;;;15.00;99.90;;;;;;5052006;28;20079;-35
2023/07/27 04:40:01;;;;;;;10.43;5.57;;;15.00;99.90;;;;;;5054022;28;20052;-35
2023/07/27 04:42:27;;;;;;;13.38;5.60;;;15.00;99.90;;;;;;5055619;28;20021;-49
2023/07/27 04:44:52;;;;;;;11.43;5.35;;;14.90;99.90;;;;;;5055406;28;20124;-51
2023/07/27 04:47:18;;;;;;;10.63;5.13;;;14.90;99.90;;;;;;5047849;28;20075;-47
2023/07/27 04:49:45;;;;;;;12.63;4.97;;;15.00;99.90;;;;;;5038601;28;20056;-50
2023/07/27 04:52:11;;;;;;;11.80;4.85;;;15.00;99.90;;;;;;5055703;28;20093;-46
2023/07/27 04:54:36;;;;;;;9.95;4.63;;;14.90;99.90;;;;;;5055586;28;20112;-48
2023/07/27 04:57:02;;;;;;;6.57;4.32;;;15.00;99.90;;;;;;5055575;28;20025;-46
2023/07/27 04:59:28;;;;;;;7.95;4.60;;;15.00;99.90;;;;;;5055566;28;20021;-48
2023/07/27 05:01:53;;;;;;;8.38;4.80;;;15.00;99.90;;;;;;5055510;28;20112;-50
2023/07/27 05:04:19;;;;;;;6.95;4.07;;;15.00;99.90;;;;;;5055192;28;20025;-50
2023/07/27 05:06:44;;;;;;;6.13;3.83;;;15.00;99.90;;;;;;5054337;28;20082;-46
2023/07/27 05:09:10;;;;;;;7.95;3.83;;;15.10;99.90;;;;;;5055007;28;20033;-49
2023/07/27 05:11:36;;;;;;;8.75;3.72;;;15.10;99.90;;;;;;5052572;28;20111;-50
2023/07/27 05:14:02;;;;;;;4.65;3.33;;;15.10;99.90;;;;;;5040665;28;20450;-47
2023/07/27 05:16:27;;;;;;;8.68;4.55;;;15.10;99.90;;;;;;5046727;28;20104;-50
2023/07/27 05:18:53;;;;;;;5.85;3.72;;;15.10;99.90;;;;;;5048531;28;20028;-48
2023/07/27 05:21:19;;;;;;;7.40;4.00;;;15.10;99.90;;;;;;5054753;28;20017;-49
2023/07/27 05:23:44;;;;;;;5.05;3.50;;;15.10;99.90;;;;;;5035673;28;20489;-49
2023/07/27 05:26:10;;;;;;;3.33;2.80;;;15.20;99.90;;;;;;5034843;28;20035;-50
2023/07/27 05:28:36;;;;;;;6.38;3.00;;;15.20;99.90;;;;;;5037637;28;20028;-50
2023/07/27 05:31:01;;;;;;;6.22;2.70;;;15.20;99.90;;;;;;5054725;28;20024;-50
2023/07/27 05:33:27;;;;;;;3.47;3.00;;;15.20;99.90;;;;;;5054697;28;20021;-46
2023/07/27 05:35:53;;;;;;;3.13;2.83;;;15.30;99.90;;;;;;5054812;28;20028;-45
2023/07/27 05:38:18;;;;;;;5.10;3.00;;;15.30;99.90;;;;;;5054568;28;20025;-50
2023/07/27 05:40:44;;;;;;;5.13;3.28;;;15.30;99.90;;;;;;5054048;28;20689;-49
2023/07/27 05:43:10;;;;;;;4.65;3.10;;;15.30;99.90;;;;;;5054534;28;20017;-48
2023/07/27 05:45:39;;;;;;;4.95;2.60;;;15.30;99.90;;;;;;5054240;28;20446;-50
2023/07/27 05:48:06;;;;;;;3.85;2.75;;;15.30;99.90;;;;;;5054412;28;20108;-50
2023/07/27 05:50:32;;;;;;;4.25;2.88;;;15.40;99.90;;;;;;5053966;28;20025;-46
2023/07/27 05:52:57;;;;;;;3.47;2.47;;;15.40;99.90;;;;;;5054068;28;20583;-49
2023/07/27 05:55:23;;;;;;;2.78;2.40;;;15.40;99.90;;;;;;5054524;28;20094;-47
2023/07/27 05:57:49;;;;;;;3.50;2.60;;;15.50;99.90;;;;;;5053444;28;20025;-51
2023/07/27 06:00:15;;;;;;;4.35;2.55;;;15.60;99.90;;;;;;5054137;28;20021;-50
2023/07/27 06:02:41;;;;;;;8.45;3.15;;;15.50;99.90;;;;;;5052788;28;20559;-49
2023/07/27 06:05:07;;;;;;;2.95;1.88;;;15.60;99.90;;;;;;5054061;28;20025;-48
2023/07/27 06:07:32;;;;;;;3.47;2.22;;;15.60;99.90;;;;;;5053918;28;20029;-46
2023/07/27 06:09:58;;;;;;;6.43;2.58;;;15.70;99.90;;;;;;5052839;28;20075;-50
2023/07/27 06:12:24;;;;;;;2.97;2.05;;;15.70;99.90;;;;;;5034274;28;20049;-49
2023/07/27 06:14:51;;;;;;;2.13;1.90;;;15.80;99.90;;;;;;5037879;28;20214;-50
2023/07/27 06:17:17;;;;;;;1.75;1.63;;;15.70;99.90;;;;;;5054098;28;20025;-52
2023/07/27 06:19:42;;;;;;;2.45;1.95;;;15.80;99.90;;;;;;5053679;28;20557;-51
2023/07/27 06:22:08;;;;;;;3.72;1.98;;;15.80;99.90;;;;;;5054075;28;20055;-52
2023/07/27 06:24:34;;;;;;;1.92;1.83;;;15.90;99.90;;;;;;5053917;28;20032;-47
2023/07/27 06:26:59;;;;;;;2.20;1.98;;;15.90;99.90;;;;;;5053870;28;20017;-48
2023/07/27 06:29:25;;;;;;;2.95;2.28;;;15.90;99.90;;;;;;5054663;28;20029;-50
2023/07/27 06:31:50;;;;;;;2.25;2.00;;;15.90;99.90;;;;;;5052790;28;20478;-50
2023/07/27 06:34:16;;;;;;;2.10;1.90;;;16.00;99.90;;;;;;5053465;28;20025;-49
2023/07/27 06:36:42;;;;;;;2.30;2.08;;;16.00;99.90;;;;;;5053389;28;20505;-59
2023/07/27 06:39:08;;;;;;;2.15;2.00;;;16.00;99.90;;;;;;5053512;28;20473;-49
2023/07/27 06:41:34;;;;;;;3.78;1.55;;;16.10;99.90;;;;;;5052183;28;20078;-48
2023/07/27 06:44:00;;;;;;;1.63;1.50;;;16.10;99.90;;;;;;5052131;28;20021;-50
2023/07/27 06:46:26;;;;;;;2.28;2.08;;;16.20;99.90;;;;;;5051820;28;20045;-50
2023/07/27 06:48:52;;;;;;;2.28;2.08;;;16.20;99.90;;;;;;5052433;28;20021;-51
2023/07/27 06:51:18;;;;;;;2.53;2.10;;;16.30;99.90;;;;;;5053541;28;20036;-49
2023/07/27 06:53:43;;;;;;;2.95;1.88;;;16.30;99.90;;;;;;5053068;28;20025;-50
2023/07/27 06:56:09;;;;;;;1.60;1.50;;;16.40;99.90;;;;;;5053442;28;20505;-50
2023/07/27 06:58:35;;;;;;;3.08;2.08;;;16.40;99.90;;;;;;5053322;28;20095;-51
2023/07/27 07:01:00;;;;;;;1.60;1.50;;;16.50;99.90;;;;;;5053043;28;20486;-51
2023/07/27 07:03:26;;;;;;;1.52;1.42;;;16.50;99.90;;;;;;5052170;28;20017;-52
2023/07/27 07:05:55;;;;;;;1.42;1.33;;;16.50;99.90;;;;;;5052285;28;20496;-51
2023/07/27 07:08:20;;;;;;;3.47;2.50;;;16.60;99.90;;;;;;5052938;28;20029;-50
2023/07/27 07:10:46;;;;;;;1.70;1.60;;;16.60;99.90;;;;;;5052887;28;20396;-50
2023/07/27 07:13:12;;;;;;;2.63;1.70;;;16.60;99.90;;;;;;5052927;28;20021;-50
2023/07/27 07:15:38;;;;;;;1.60;1.50;;;16.70;99.90;;;;;;5053183;28;20025;-49
2023/07/27 07:18:04;;;;;;;4.72;1.63;;;16.80;99.90;;;;;;5052814;28;20028;-49
2023/07/27 07:20:29;;;;;;;1.90;1.63;;;16.80;99.90;;;;;;5052858;28;20440;-50
2023/07/27 07:22:55;;;;;;;1.63;1.52;;;16.90;99.90;;;;;;5052049;28;20473;-46
2023/07/27 07:25:20;;;;;;;2.53;1.50;;;16.90;99.90;;;;;;5052683;28;20062;-52
2023/07/27 07:27:46;;;;;;;1.55;1.45;;;16.90;99.90;;;;;;5052920;28;20029;-49
2023/07/27 07:30:12;;;;;;;1.50;1.40;;;16.90;99.90;;;;;;5052912;28;20028;-49
2023/07/27 07:32:38;;;;;;;1.85;1.58;;;17.00;99.90;;;;;;5052668;28;20473;-50
2023/07/27 07:35:04;;;;;;;2.25;1.50;;;17.00;99.90;;;;;;5052641;28;20040;-50
2023/07/27 07:37:29;;;;;;;1.67;1.23;;;17.00;99.90;;;;;;5052617;28;20106;-52
2023/07/27 07:39:55;;;;;;;1.80;1.70;;;17.10;99.90;;;;;;5051882;28;20052;-48
2023/07/27 07:42:21;;;;;;;3.20;1.70;;;17.10;99.90;;;;;;5052606;28;20029;-52
2023/07/27 07:44:47;;;;;;;1.70;1.60;;;17.20;99.90;;;;;;5052306;28;20120;-51
2023/07/27 07:47:12;;;;;;;3.08;1.88;;;17.20;99.90;;;;;;5052516;28;20550;-49
2023/07/27 07:49:38;;;;;;;4.40;1.63;;;17.30;99.90;;;;;;5052828;28;20040;-51
2023/07/27 07:52:04;;;;;;;1.67;1.58;;;17.30;99.90;;;;;;5052480;28;20100;-52
2023/07/27 07:54:30;;;;;;;1.30;1.20;;;17.30;99.90;;;;;;5052683;28;20485;-50
2023/07/27 07:56:56;;;;;;;2.10;1.60;;;17.40;99.90;;;;;;5052011;28;20021;-49
2023/07/27 07:59:23;;;;;;;5.72;1.75;;;17.40;99.90;;;;;;5052759;28;20381;-49
2023/07/27 08:01:49;;;;;;;1.08;0.98;;;17.50;99.90;;;;;;5052460;28;20036;-50
2023/07/27 08:04:15;;;;;;;1.25;1.25;;;17.50;99.90;;;;;;5052418;28;20033;-50
2023/07/27 08:06:40;;;;;;;0.93;0.93;;;17.60;99.90;;;;;;5052161;28;20043;-49
2023/07/27 08:09:06;;;;;;;2.05;1.17;;;17.60;99.90;;;;;;5049416;28;20025;-49
2023/07/27 08:11:33;;;;;;;0.65;0.65;;;17.70;99.90;;;;;;5041320;28;20469;-50
2023/07/27 08:14:01;;;;;;;0.63;0.63;;;17.70;99.90;;;;;;5052143;28;20032;-50
2023/07/27 08:16:28;;;;;;;1.20;0.50;;;17.70;99.90;;;;;;5057443;28;20028;-46
2023/07/27 08:18:53;;;;;;;3.30;0.98;;;17.70;99.90;;;;;;5056207;28;20090;-48
2023/07/27 08:21:19;;;;;;;1.15;1.00;;;17.80;99.90;;;;;;5055916;28;20417;-55
2023/07/27 08:23:45;;;;;;;0.80;0.80;;;17.80;99.90;;;;;;5056026;28;20033;-49
2023/07/27 08:26:11;;;;;;;1.33;1.00;;;17.80;99.90;;;;;;5055958;28;20515;-45
2023/07/27 08:28:36;;;;;;;0.98;0.90;;;17.80;99.90;;;;;;5055935;28;20032;-49
2023/07/27 08:31:05;;;;;;;2.38;1.00;;;17.80;99.90;;;;;;5049933;28;20025;-44
2023/07/27 08:33:31;;;;;;;2.33;0.90;;;17.70;99.90;;;;;;5051434;28;20033;-50
2023/07/27 08:35:57;;;;;;;2.83;1.20;;;17.70;99.90;;;;;;5053864;28;20025;-46
2023/07/27 08:38:24;;;;;;;2.00;1.48;;;17.80;99.90;;;;;;5055529;28;20024;-48
2023/07/27 08:41:00;;;;;;;2.47;1.67;;;17.80;99.90;;;;;;5053394;28;20382;-48
2023/07/27 08:43:27;;;;;;;1.97;0.93;;;17.80;99.90;;;;;;5053039;28;20029;-47
2023/07/27 08:45:53;;;;;;;1.60;1.42;;;17.90;99.90;;;;;;5051357;28;20290;-50
2023/07/27 08:48:20;;;;;;;0.85;0.85;;;17.90;99.90;;;;;;5049570;28;20438;-51
2023/07/27 08:50:47;;;;;;;1.50;1.10;;;17.90;99.90;;;;;;5044911;28;20028;-48
2023/07/27 08:53:14;;;;;;;4.03;1.08;;;18.00;99.90;;;;;;5049655;28;20033;-50
2023/07/27 08:55:40;;;;;;;0.63;0.60;;;18.10;99.90;;;;;;5055389;28;20013;-50
2023/07/27 08:58:07;;;;;;;1.15;1.05;;;18.10;99.90;;;;;;5054390;28;20045;-49
2023/07/27 09:00:33;;;;;;;6.85;1.58;;;18.10;99.90;;;;;;5043534;28;20104;-48
2023/07/27 09:02:59;;;;;;;1.50;1.40;;;18.10;99.90;;;;;;5053678;28;20523;-48
2023/07/27 09:05:42;;;;;;;1.50;1.10;;;18.10;99.90;;;;;;5044748;28;20075;-51
2023/07/27 09:08:12;;;;;;;2.40;1.20;;;18.10;99.90;;;;;;5055250;28;20037;-49
2023/07/27 09:10:39;;;;;;;1.30;1.02;;;18.20;99.90;;;;;;5055484;28;20481;-52
2023/07/27 09:13:05;;;;;;;3.80;0.98;;;18.20;99.90;;;;;;5055475;28;20021;-45
2023/07/27 09:15:33;;;;;;;0.95;0.70;;;18.20;99.90;;;;;;5055110;28;20037;-48
2023/07/27 09:18:01;;;;;;;0.98;0.80;;;18.30;99.90;;;;;;5055055;28;20029;-50
2023/07/27 09:20:28;;;;;;;0.82;0.80;;;18.30;99.90;;;;;;5055257;28;20028;-50
2023/07/27 09:22:56;;;;;;;1.10;1.00;;;18.30;99.90;;;;;;5054138;28;20025;-51
2023/07/27 09:25:24;;;;;;;1.80;1.02;;;18.30;99.90;;;;;;5054574;28;20029;-49
2023/07/27 09:27:54;;;;;;;1.05;1.02;;;18.40;99.90;;;;;;5054670;28;20037;-49
2023/07/27 09:30:21;;;;;;;1.77;1.33;;;18.40;99.90;;;;;;5054747;28;20035;-49
2023/07/27 09:32:47;;;;;;;1.52;1.05;;;18.40;99.90;;;;;;5054533;28;20363;-50
2023/07/27 09:35:18;;;;;;;4.00;1.13;;;18.40;99.90;;;;;;5053643;28;20025;-49
2023/07/27 09:37:46;;;;;;;0.73;0.73;;;18.40;99.90;;;;;;5054705;28;20029;-46
2023/07/27 09:40:17;;;;;;;0.68;0.65;;;18.40;99.90;;;;;;5053919;28;20107;-49
2023/07/27 09:42:44;;;;;;;0.43;0.43;;;18.40;99.90;;;;;;5054680;28;20037;-50
2023/07/27 09:45:10;;;;;;;0.30;0.30;;;18.40;99.90;;;;;;5053042;28;20390;-54
2023/07/27 09:47:37;;;;;;;0.75;0.60;;;18.30;99.90;;;;;;5054533;28;20587;-48
2023/07/27 09:50:03;;;;;;;0.40;0.40;;;18.30;99.90;;;;;;5054458;28;20052;-49
2023/07/27 09:52:30;;;;;;;1.15;0.50;;;18.30;99.90;;;;;;5053030;28;20048;-47
2023/07/27 09:54:57;;;;;;;0.52;0.50;;;18.40;99.90;;;;;;5054322;28;20110;-47
2023/07/27 09:57:23;;;;;;;;;;;18.50;99.90;;;;;;5053907;28;20036;-51
2023/07/27 09:59:49;;;;;;;0.68;0.60;;;18.50;99.90;;;;;;5054527;28;19909;-51
2023/07/27 10:02:15;;;;;;;0.60;0.60;;;18.50;99.90;;;;;;5054055;28;20449;-47
2023/07/27 10:04:51;;;;;;;0.40;0.40;;;18.60;99.90;;;;;;5054638;28;20444;-51
2023/07/27 10:07:18;;;;;;;0.50;0.50;;;18.60;99.90;;;;;;5054223;28;20470;-48
2023/07/27 10:09:44;;;;;;;0.60;0.60;;;18.70;99.90;;;;;;5054024;28;20490;-50
2023/07/27 10:12:09;;;;;;;1.00;0.90;;;18.70;99.90;;;;;;5054256;28;20025;-48
2023/07/27 10:14:37;;;;;;;1.00;0.90;;;18.70;99.90;;;;;;5053239;28;20029;-49
2023/07/27 10:17:08;;;;;;;0.60;0.60;;;18.70;99.90;;;;;;5053933;28;20509;-50
2023/07/27 10:19:45;;;;;;;0.90;0.80;;;18.70;99.90;;;;;;5053856;28;20047;-44
2023/07/27 10:22:18;;;;;;;0.63;0.60;;;18.70;99.90;;;;;;5049172;28;20033;-47
2023/07/27 10:24:51;;;;;;;3.80;1.20;;;18.80;99.90;;;;;;5047967;28;20029;-50
2023/07/27 10:27:18;;;;;;;1.65;1.27;;;18.80;99.90;;;;;;5047988;28;20108;-54
2023/07/27 10:29:50;;;;;;;1.83;1.08;;;18.80;99.90;;;;;;5045051;28;20097;-45
2023/07/27 10:32:16;;;;;;;1.48;1.30;;;18.70;99.90;;;;;;5052744;28;20025;-49
2023/07/27 10:34:42;;;;;;;1.25;1.15;;;18.70;99.90;;;;;;5053304;28;20470;-52
2023/07/27 10:37:13;;;;;;;1.02;0.80;;;18.80;99.90;;;;;;5053232;28;20021;-47
2023/07/27 10:39:47;;;;;;;1.85;0.90;;;18.90;99.90;;;;;;5053513;28;20512;-52
2023/07/27 10:42:16;;;;;;;2.47;1.05;;;18.90;99.90;;;;;;5053133;28;20021;-49
2023/07/27 10:44:43;;;;;;;3.50;0.80;;;18.90;99.90;;;;;;5053393;28;20043;-51
2023/07/27 10:47:13;;;;;;;2.28;1.75;;;19.00;99.90;;;;;;5052404;28;20398;-51
2023/07/27 10:49:44;;;;;;;0.90;0.90;;;18.90;99.90;;;;;;5053345;28;20024;-52
2023/07/27 10:52:14;;;;;;;0.82;0.82;;;18.90;99.90;;;;;;5039543;28;20029;-50
2023/07/27 10:54:41;;;;;;;2.75;0.95;;;18.90;99.90;;;;;;5051572;28;20028;-48
2023/07/27 10:57:09;;;;;;;0.70;0.70;;;18.90;99.90;;;;;;5053233;28;20088;-50
2023/07/27 10:59:40;;;;;;;2.28;0.70;;;18.90;99.90;;;;;;5033664;28;20028;-48
2023/07/27 11:02:22;;;;;;;2.25;1.20;;;18.90;99.90;;;;;;5033293;28;20025;-49
2023/07/27 11:04:50;;;;;;;2.85;1.08;;;19.00;99.90;;;;;;5045184;28;20021;-49
2023/07/27 11:07:29;;;;;;;1.75;1.10;;;19.00;99.90;;;;;;5053002;28;20477;-49
2023/07/27 11:09:55;;;;;;;1.95;1.10;;;19.00;99.90;;;;;;5050242;28;20078;-49
2023/07/27 11:12:22;;;;;;;1.52;1.40;;;19.10;99.90;;;;;;5033404;28;20021;-48
2023/07/27 11:14:47;;;;;;;1.63;1.52;;;19.10;99.90;;;;;;5033024;28;20018;-49
2023/07/27 11:17:14;;;;;;;1.65;1.55;;;19.20;99.90;;;;;;5033219;28;20022;-46
2023/07/27 11:19:39;;;;;;;1.30;1.20;;;19.30;99.90;;;;;;5032951;28;20025;-54
2023/07/27 11:22:05;;;;;;;2.38;1.70;;;19.40;99.90;;;;;;5047675;28;20441;-48
2023/07/27 11:24:33;;;;;;;1.92;1.83;;;19.30;99.90;;;;;;5052929;28;20489;-45
2023/07/27 11:26:59;;;;;;;3.30;1.60;;;19.30;99.90;;;;;;5052982;28;20119;-47
2023/07/27 11:29:25;;;;;;;2.00;1.30;;;19.30;99.90;;;;;;5052678;28;20049;-47
2023/07/27 11:31:55;;;;;;;2.20;1.50;;;19.30;99.90;;;;;;5052762;28;20056;-50
2023/07/27 11:34:23;;;;;;;2.58;1.00;;;19.30;99.90;;;;;;5052513;28;20078;-45
2023/07/27 11:36:54;;;;;;;1.33;1.25;;;19.30;99.90;;;;;;5052675;28;20044;-46
2023/07/27 11:39:20;;;;;;;1.65;1.55;;;19.40;99.90;;;;;;5036652;28;20394;-46
2023/07/27 11:41:48;;;;;;;1.40;1.33;;;19.50;99.90;;;;;;5031732;28;20021;-46
2023/07/27 11:44:15;;;;;;;1.05;1.05;;;19.50;99.90;;;;;;5032504;28;20029;-47
2023/07/27 11:46:46;;;;;;;2.72;1.00;;;19.60;99.90;;;;;;5032133;28;20072;-49
2023/07/27 11:49:12;;;;;;;2.80;1.00;;;19.60;99.90;;;;;;5033696;28;20025;-48
2023/07/27 11:51:39;;;;;;;0.90;0.90;;;19.50;99.90;;;;;;5037113;28;20409;-48
2023/07/27 11:54:05;;;;;;;6.50;1.30;;;19.50;99.90;;;;;;5050274;28;20025;-51
2023/07/27 11:56:37;;;;;;;2.30;1.30;;;19.40;99.90;;;;;;5054681;28;20029;-46
2023/07/27 11:59:06;;;;;;;1.40;1.25;;;19.40;99.90;;;;;;5056504;28;20036;-48
2023/07/27 12:01:36;;;;;;;3.15;1.20;;;19.40;99.90;;;;;;5054923;28;20025;-52
2023/07/27 12:04:05;;;;;;;1.50;1.40;;;19.30;99.90;;;;;;5040121;28;20038;-44
2023/07/27 12:06:31;;;;;;;1.35;1.15;;;19.30;99.90;;;;;;5049440;28;20033;-50
2023/07/27 12:08:57;;;;;;;0.60;0.60;;;19.30;99.90;;;;;;5043594;28;20029;-48
2023/07/27 12:11:26;;;;;;;0.90;0.90;;;19.30;99.90;;;;;;5036110;28;20034;-47
2023/07/27 12:13:51;;;;;;;1.05;0.95;;;19.40;99.90;;;;;;5036285;28;20053;-47
2023/07/27 12:16:17;;;;;;;3.05;1.08;;;19.40;99.90;;;;;;5040878;28;20063;-43
2023/07/27 12:18:45;;;;;;;1.40;1.30;;;19.40;99.90;;;;;;5036591;28;20025;-50
2023/07/27 12:21:11;;;;;;;;;;;19.30;99.90;;;;;;5047523;28;20057;-47
2023/07/27 12:23:37;;;;;;;1.00;0.90;;;19.30;99.90;;;;;;5036210;28;19916;-46
2023/07/27 12:26:03;;;;;;;1.75;1.20;;;19.40;99.90;;;;;;5047904;28;20385;-46
2023/07/27 12:28:31;;;;;;;1.23;0.95;;;19.30;99.90;;;;;;5055207;28;20037;-49
2023/07/27 12:30:56;;;;;;;;;;;19.30;99.90;;;;;;5056587;28;20470;-48
2023/07/27 12:33:25;;;;;;;2.47;1.33;;;19.20;99.90;;;;;;5055971;28;19916;-45
2023/07/27 12:35:52;;;;;;;3.78;2.15;;;19.30;99.90;;;;;;5056100;28;20029;-47
2023/07/27 12:38:19;;;;;;;2.55;2.10;;;19.20;99.90;;;;;;5056035;28;20378;-58
2023/07/27 12:40:45;;;;;;;1.90;1.15;;;19.20;99.90;;;;;;5056010;28;20025;-46
2023/07/27 12:43:12;;;;;;;1.40;0.70;;;19.20;99.90;;;;;;5055792;28;20125;-43
2023/07/27 12:45:38;;;;;;;1.95;0.90;;;19.30;99.90;;;;;;5054966;28;20489;-48
2023/07/27 12:48:05;;;;;;;3.10;1.40;;;19.30;99.90;;;;;;5055457;28;20036;-50